Time;durP1;ratioP1;P1;durP2;ratioP2;P2;SDS_P1;SDS_P2;PMS_P1;PMS_P2;Temp;Humidity;BMP_temperature;BMP_pressure;BME280_temperature;BME280_humidity;BME280_pressure;Samples;Min_cycle;Max_cycle;Signal;HPM_P1;HPM_P2
2023/12/23 00:01:21;;;;;;;1.20;0.57;;;7.10;99.90;;;;;;5015107;28;20317;-65
2023/12/23 00:03:46;;;;;;;4.17;0.70;;;7.10;99.90;;;;;;5014868;28;20267;-66
2023/12/23 00:06:12;;;;;;;2.13;0.80;;;7.10;99.90;;;;;;5014582;28;20257;-66
2023/12/23 00:08:38;;;;;;;2.73;1.07;;;7.10;99.90;;;;;;5014988;28;20201;-66
2023/12/23 00:11:03;;;;;;;4.23;0.70;;;7.10;99.90;;;;;;5014850;28;20211;-65
2023/12/23 00:13:29;;;;;;;3.70;1.10;;;7.10;99.90;;;;;;5014715;28;20205;-65
2023/12/23 00:15:55;;;;;;;3.00;0.90;;;7.00;99.90;;;;;;5006408;28;20183;-66
2023/12/23 00:18:20;;;;;;;1.70;0.80;;;7.10;99.90;;;;;;5001799;28;20553;-66
2023/12/23 00:20:46;;;;;;;2.50;1.37;;;7.10;99.90;;;;;;5006228;28;20270;-66
2023/12/23 00:23:12;;;;;;;4.50;0.60;;;7.20;99.90;;;;;;5014709;28;20261;-66
2023/12/23 00:25:38;;;;;;;3.93;0.90;;;7.10;99.90;;;;;;5014723;28;20909;-66
2023/12/23 00:28:05;;;;;;;8.03;1.43;;;7.00;99.90;;;;;;5000923;28;20438;-66
2023/12/23 00:30:30;;;;;;;2.80;0.80;;;7.10;99.90;;;;;;5006027;28;20202;-66
2023/12/23 00:32:55;;;;;;;1.10;0.70;;;7.10;99.90;;;;;;5000496;28;20497;-66
2023/12/23 00:35:22;;;;;;;2.70;1.00;;;7.20;99.90;;;;;;5014024;28;20917;-66
2023/12/23 00:37:47;;;;;;;8.20;1.23;;;7.30;99.90;;;;;;5014509;28;20175;-66
2023/12/23 00:40:13;;;;;;;1.30;0.70;;;7.20;99.90;;;;;;5014330;28;20422;-66
2023/12/23 00:42:38;;;;;;;1.50;0.80;;;7.00;99.90;;;;;;5014440;28;20553;-66
2023/12/23 00:45:05;;;;;;;3.83;1.10;;;7.00;99.90;;;;;;5007630;28;20187;-66
2023/12/23 00:47:30;;;;;;;10.77;0.90;;;6.90;99.90;;;;;;5006219;28;20191;-66
2023/12/23 00:49:56;;;;;;;1.43;0.67;;;6.90;99.90;;;;;;4996215;28;20739;-66
2023/12/23 00:52:22;;;;;;;1.43;0.70;;;6.80;99.90;;;;;;5013621;28;20233;-66
2023/12/23 00:54:48;;;;;;;1.67;0.80;;;6.90;99.90;;;;;;5014241;28;20198;-66
2023/12/23 00:57:13;;;;;;;2.17;0.70;;;6.70;99.90;;;;;;5015414;28;20449;-66
2023/12/23 00:59:39;;;;;;;2.10;0.67;;;6.70;99.90;;;;;;5021822;28;20627;-66
2023/12/23 01:02:04;;;;;;;1.60;0.83;;;6.70;99.90;;;;;;5032253;28;20285;-66
2023/12/23 01:04:30;;;;;;;2.87;0.60;;;6.70;99.90;;;;;;5021681;28;20187;-66
2023/12/23 01:06:55;;;;;;;3.73;1.30;;;6.60;99.90;;;;;;5026649;28;20262;-65
2023/12/23 01:09:21;;;;;;;2.07;0.70;;;6.70;99.90;;;;;;5024791;28;20638;-66
2023/12/23 01:11:46;;;;;;;3.73;0.60;;;6.60;99.90;;;;;;5018996;28;20202;-66
2023/12/23 01:14:12;;;;;;;1.93;0.60;;;6.70;99.90;;;;;;5021823;28;20671;-66
2023/12/23 01:16:37;;;;;;;1.87;0.70;;;6.60;99.90;;;;;;5025151;28;20179;-65
2023/12/23 01:19:03;;;;;;;3.30;1.27;;;6.50;99.90;;;;;;5024474;28;20183;-66
2023/12/23 01:21:29;;;;;;;1.77;0.70;;;6.60;99.90;;;;;;5012557;28;20262;-66
2023/12/23 01:23:54;;;;;;;5.53;1.00;;;6.50;99.90;;;;;;5024551;28;20653;-66
2023/12/23 01:26:20;;;;;;;2.03;0.93;;;6.50;99.90;;;;;;5019877;28;20267;-64
2023/12/23 01:28:45;;;;;;;5.60;0.67;;;6.60;99.90;;;;;;5014115;28;20191;-63
2023/12/23 01:31:11;;;;;;;9.03;1.33;;;6.60;99.90;;;;;;5017223;28;20343;-66
2023/12/23 01:33:36;;;;;;;3.73;1.33;;;6.80;99.90;;;;;;5022525;28;20270;-66
2023/12/23 01:36:05;;;;;;;3.50;0.80;;;6.60;99.90;;;;;;5018101;28;20175;-66
2023/12/23 01:38:34;;;;;;;1.63;0.80;;;6.70;99.90;;;;;;5022450;28;20182;-66
2023/12/23 01:40:59;;;;;;;3.57;0.50;;;6.70;99.90;;;;;;5013183;28;20414;-66
2023/12/23 01:43:25;;;;;;;6.33;1.70;;;6.70;99.90;;;;;;5013451;28;20437;-66
2023/12/23 01:45:58;;;;;;;1.30;0.60;;;6.70;99.90;;;;;;5017277;28;20697;-66
2023/12/23 01:48:24;;;;;;;2.17;0.77;;;6.60;99.90;;;;;;5021047;28;20175;-66
2023/12/23 01:50:50;;;;;;;1.87;1.00;;;6.60;99.90;;;;;;5030977;28;20459;-66
2023/12/23 01:53:17;;;;;;;2.13;0.63;;;6.60;99.90;;;;;;5003201;28;20233;-66
2023/12/23 01:55:43;;;;;;;1.10;0.50;;;6.60;99.90;;;;;;5026044;28;20523;-66
2023/12/23 01:58:08;;;;;;;3.57;0.73;;;6.60;99.90;;;;;;5011269;28;20828;-64
2023/12/23 02:00:34;;;;;;;1.60;0.80;;;6.70;99.90;;;;;;5012126;28;20476;-64
2023/12/23 02:03:00;;;;;;;6.93;0.93;;;6.70;99.90;;;;;;5012795;28;20175;-66
2023/12/23 02:05:25;;;;;;;10.73;0.90;;;6.70;99.90;;;;;;5010094;28;20262;-66
2023/12/23 02:07:52;;;;;;;2.30;0.90;;;6.70;99.90;;;;;;5005454;28;20187;-63
2023/12/23 02:10:18;;;;;;;5.17;0.87;;;6.90;99.90;;;;;;5004544;28;20218;-64
2023/12/23 02:12:56;;;;;;;3.00;1.33;;;6.70;99.90;;;;;;5003985;28;20508;-66
2023/12/23 02:15:23;;;;;;;3.13;1.00;;;6.80;99.90;;;;;;4987212;28;20842;-66
2023/12/23 02:18:00;;;;;;;1.43;0.90;;;6.80;99.90;;;;;;4999193;28;20414;-66
2023/12/23 02:20:26;;;;;;;3.73;0.73;;;6.80;99.90;;;;;;5008312;28;20422;-66
2023/12/23 02:22:52;;;;;;;5.17;1.27;;;6.70;99.90;;;;;;5012527;28;20480;-66
2023/12/23 02:25:18;;;;;;;2.50;0.97;;;6.80;99.90;;;;;;5012444;28;20410;-65
2023/12/23 02:28:09;;;;;;;1.20;0.70;;;6.80;99.90;;;;;;5004815;28;20194;-66
2023/12/23 02:30:39;;;;;;;1.67;0.73;;;6.70;99.90;;;;;;5002575;28;20495;-66
2023/12/23 02:33:04;;;;;;;2.90;0.90;;;6.60;99.90;;;;;;4999371;28;20421;-63
2023/12/23 02:35:30;;;;;;;5.20;0.93;;;6.50;99.90;;;;;;4999319;28;21119;-63
2023/12/23 02:37:55;;;;;;;2.60;0.80;;;6.50;99.90;;;;;;5004131;28;20227;-63
2023/12/23 02:40:21;;;;;;;2.17;1.00;;;6.50;99.90;;;;;;5012323;28;20694;-66
2023/12/23 02:42:46;;;;;;;1.77;0.60;;;6.50;99.90;;;;;;5012391;28;20525;-65
2023/12/23 02:45:12;;;;;;;1.10;0.50;;;6.50;99.90;;;;;;5004879;28;20278;-67
2023/12/23 02:47:37;;;;;;;1.00;0.47;;;6.50;99.90;;;;;;5012146;28;20277;-67
2023/12/23 02:50:03;;;;;;;1.67;0.60;;;6.40;99.90;;;;;;5011917;28;20550;-65
2023/12/23 02:52:29;;;;;;;2.20;0.93;;;6.40;99.90;;;;;;5011703;28;20186;-71
2023/12/23 02:54:54;;;;;;;1.40;0.80;;;6.40;99.90;;;;;;5012158;28;20179;-66
2023/12/23 02:57:20;;;;;;;1.10;0.50;;;6.40;99.90;;;;;;5018344;28;20218;-68
2023/12/23 02:59:45;;;;;;;1.93;0.60;;;6.40;99.90;;;;;;5011631;28;20525;-65
2023/12/23 03:02:11;;;;;;;2.33;0.87;;;6.40;99.90;;;;;;5011717;28;20191;-65
2023/12/23 03:04:36;;;;;;;1.00;0.40;;;6.40;99.90;;;;;;5011990;28;20190;-64
2023/12/23 03:07:02;;;;;;;2.10;0.80;;;6.50;99.90;;;;;;5011456;28;20201;-68
2023/12/23 03:09:27;;;;;;;2.00;0.57;;;6.50;99.90;;;;;;5012096;28;20210;-69
2023/12/23 03:11:53;;;;;;;3.20;0.80;;;6.60;99.90;;;;;;5010810;28;20207;-64
2023/12/23 03:14:18;;;;;;;1.20;0.60;;;6.50;99.90;;;;;;5011300;28;20179;-64
2023/12/23 03:16:44;;;;;;;1.43;0.80;;;6.50;99.90;;;;;;5011805;28;20189;-65
2023/12/23 03:19:10;;;;;;;1.10;0.50;;;6.60;99.90;;;;;;5011717;28;20270;-65
2023/12/23 03:21:42;;;;;;;2.63;0.80;;;6.70;99.90;;;;;;5024413;28;20191;-66
2023/12/23 03:24:07;;;;;;;1.00;0.40;;;6.60;99.90;;;;;;5025138;28;20924;-65
2023/12/23 03:26:33;;;;;;;2.87;0.83;;;6.70;99.90;;;;;;5011064;28;20461;-66
2023/12/23 03:28:58;;;;;;;1.33;0.60;;;6.60;99.90;;;;;;5024757;28;20198;-66
2023/12/23 03:31:24;;;;;;;1.73;0.60;;;6.60;99.90;;;;;;5018060;28;20214;-66
2023/12/23 03:33:49;;;;;;;1.10;0.40;;;6.50;99.90;;;;;;5018480;28;20205;-66
2023/12/23 03:36:17;;;;;;;1.17;0.60;;;6.50;99.90;;;;;;5024223;28;20191;-64
2023/12/23 03:38:43;;;;;;;1.00;0.40;;;6.50;99.90;;;;;;5011760;28;20202;-64
2023/12/23 03:41:10;;;;;;;1.00;0.40;;;6.50;99.90;;;;;;5015003;28;20456;-65
2023/12/23 03:43:35;;;;;;;1.00;0.40;;;6.40;99.90;;;;;;5018103;28;20187;-65
2023/12/23 03:46:01;;;;;;;1.40;0.70;;;6.50;99.90;;;;;;5011499;28;20422;-66
2023/12/23 03:48:27;;;;;;;1.63;0.50;;;6.40;99.90;;;;;;5011554;28;20190;-66
2023/12/23 03:50:52;;;;;;;1.20;0.50;;;6.50;99.90;;;;;;5012331;28;20205;-66
2023/12/23 03:53:18;;;;;;;2.87;0.90;;;6.40;99.90;;;;;;5024653;28;20250;-65
2023/12/23 03:55:43;;;;;;;1.70;0.70;;;6.50;99.90;;;;;;5024782;28;20210;-66
2023/12/23 03:58:09;;;;;;;2.20;0.93;;;6.50;99.90;;;;;;5010315;28;20259;-66
2023/12/23 04:00:34;;;;;;;2.27;0.73;;;6.40;99.90;;;;;;5011022;28;20195;-66
2023/12/23 04:03:00;;;;;;;1.50;0.80;;;6.40;99.90;;;;;;5011295;28;20221;-64
2023/12/23 04:05:25;;;;;;;1.97;1.10;;;6.50;99.90;;;;;;5010543;28;20179;-64
2023/12/23 04:07:51;;;;;;;1.23;0.67;;;6.40;99.90;;;;;;4999429;28;20230;-66
2023/12/23 04:10:17;;;;;;;2.70;1.10;;;6.40;99.90;;;;;;5010128;28;20199;-66
2023/12/23 04:12:42;;;;;;;1.10;0.60;;;6.40;99.90;;;;;;5011372;28;20183;-64
2023/12/23 04:15:08;;;;;;;1.67;0.90;;;6.50;99.90;;;;;;5011090;28;20425;-64
2023/12/23 04:17:34;;;;;;;1.77;0.73;;;6.40;99.90;;;;;;4998907;28;20214;-64
2023/12/23 04:20:00;;;;;;;2.13;0.60;;;6.40;99.90;;;;;;5010575;28;20735;-64
2023/12/23 04:22:26;;;;;;;1.10;0.50;;;6.50;99.90;;;;;;5011928;28;20420;-66
2023/12/23 04:24:51;;;;;;;3.00;0.70;;;6.50;99.90;;;;;;5007134;28;20269;-66
2023/12/23 04:27:17;;;;;;;4.20;0.90;;;6.50;99.90;;;;;;5007831;28;20650;-66
2023/12/23 04:29:43;;;;;;;2.83;1.10;;;6.40;99.90;;;;;;5011820;28;20578;-66
2023/12/23 04:32:09;;;;;;;1.10;0.50;;;6.50;99.90;;;;;;4994332;28;20544;-66
2023/12/23 04:34:36;;;;;;;2.43;1.03;;;6.50;99.90;;;;;;5013678;28;20428;-66
2023/12/23 04:37:01;;;;;;;2.50;0.80;;;6.60;99.90;;;;;;5009677;28;20631;-66
2023/12/23 04:39:27;;;;;;;4.13;0.77;;;6.50;99.90;;;;;;5014278;28;20420;-66
2023/12/23 04:41:53;;;;;;;5.90;0.73;;;6.60;99.90;;;;;;5014460;28;20191;-66
2023/12/23 04:44:19;;;;;;;2.07;0.93;;;6.60;99.90;;;;;;5005100;28;20441;-66
2023/12/23 04:46:47;;;;;;;2.90;0.80;;;6.60;99.90;;;;;;5007120;28;20195;-64
2023/12/23 04:49:13;;;;;;;2.40;0.60;;;6.70;99.90;;;;;;5014448;28;20179;-64
2023/12/23 04:51:38;;;;;;;1.43;0.70;;;6.70;99.90;;;;;;5006410;28;20484;-66
2023/12/23 04:54:04;;;;;;;1.73;0.70;;;6.60;99.90;;;;;;5013719;28;20233;-66
2023/12/23 04:56:29;;;;;;;1.30;0.50;;;6.70;99.90;;;;;;5013586;28;20206;-66
2023/12/23 04:58:56;;;;;;;2.40;0.70;;;6.70;99.90;;;;;;5013177;28;20643;-66
2023/12/23 05:01:22;;;;;;;1.73;0.50;;;6.70;99.90;;;;;;5014010;28;20223;-66
2023/12/23 05:03:48;;;;;;;1.37;0.60;;;6.80;99.90;;;;;;5014042;28;20442;-66
2023/12/23 05:06:13;;;;;;;2.53;0.93;;;6.90;99.90;;;;;;5013350;28;20449;-64
2023/12/23 05:08:39;;;;;;;1.60;0.70;;;6.80;99.90;;;;;;5013813;28;20195;-64
2023/12/23 05:11:04;;;;;;;4.90;1.00;;;6.80;99.90;;;;;;5009952;28;20261;-64
2023/12/23 05:13:30;;;;;;;3.03;1.00;;;6.90;99.90;;;;;;5013785;28;20180;-64
2023/12/23 05:15:55;;;;;;;1.00;0.40;;;6.70;99.90;;;;;;5013513;28;20213;-64
2023/12/23 05:18:21;;;;;;;1.07;0.53;;;6.70;99.90;;;;;;4995444;28;20195;-66
2023/12/23 05:20:46;;;;;;;1.00;0.50;;;6.60;99.90;;;;;;5010235;28;20282;-66
2023/12/23 05:23:12;;;;;;;1.63;0.70;;;6.70;99.90;;;;;;5013669;28;20187;-66
2023/12/23 05:25:37;;;;;;;5.20;0.93;;;6.70;99.90;;;;;;5013729;28;20646;-66
2023/12/23 05:28:03;;;;;;;1.20;0.60;;;6.50;99.90;;;;;;5005784;28;20198;-66
2023/12/23 05:30:29;;;;;;;1.00;0.50;;;6.50;99.90;;;;;;5005082;28;20195;-66
2023/12/23 05:32:55;;;;;;;1.00;0.40;;;6.40;99.90;;;;;;4999299;28;20426;-66
2023/12/23 05:35:20;;;;;;;1.10;0.40;;;6.40;99.90;;;;;;5012295;28;20167;-66
2023/12/23 05:37:46;;;;;;;1.00;0.40;;;6.30;99.90;;;;;;5013456;28;20187;-66
2023/12/23 05:40:11;;;;;;;1.00;0.50;;;6.30;99.90;;;;;;5006067;28;20262;-66
2023/12/23 05:42:37;;;;;;;1.00;0.40;;;6.30;99.90;;;;;;5011270;28;20179;-66
2023/12/23 05:45:03;;;;;;;1.00;0.40;;;6.40;99.90;;;;;;5005817;28;20191;-66
2023/12/23 05:47:29;;;;;;;1.00;0.40;;;6.30;99.90;;;;;;5013048;28;20325;-66
2023/12/23 05:49:55;;;;;;;1.00;0.40;;;6.30;99.90;;;;;;5013286;28;20639;-66
2023/12/23 05:52:20;;;;;;;1.70;0.60;;;6.30;99.90;;;;;;5012510;28;20203;-66
2023/12/23 05:54:46;;;;;;;1.00;0.40;;;6.30;99.90;;;;;;5013417;28;20185;-66
2023/12/23 05:57:11;;;;;;;1.00;0.40;;;6.30;99.90;;;;;;4989026;28;20576;-66
2023/12/23 05:59:37;;;;;;;1.50;0.50;;;6.30;99.90;;;;;;5004842;28;20186;-66
2023/12/23 06:02:02;;;;;;;1.00;0.40;;;6.30;99.90;;;;;;5008090;28;20198;-66
2023/12/23 06:04:28;;;;;;;1.10;0.50;;;6.30;99.90;;;;;;4993470;28;20239;-66
2023/12/23 06:06:53;;;;;;;1.00;0.40;;;6.30;99.90;;;;;;4992829;28;20706;-64
2023/12/23 06:09:19;;;;;;;1.00;0.40;;;6.30;99.90;;;;;;4993316;28;20186;-64
2023/12/23 06:11:44;;;;;;;2.70;0.70;;;6.40;99.90;;;;;;4997401;28;20211;-66
2023/12/23 06:14:10;;;;;;;1.00;0.40;;;6.40;99.90;;;;;;5001050;28;20187;-66
2023/12/23 06:16:40;;;;;;;1.10;0.60;;;6.40;99.90;;;;;;4992833;28;20180;-64
2023/12/23 06:19:06;;;;;;;1.07;0.50;;;6.40;99.90;;;;;;4993063;28;20435;-64
2023/12/23 06:21:31;;;;;;;1.20;0.50;;;6.50;99.90;;;;;;5011032;28;20419;-66
2023/12/23 06:23:58;;;;;;;2.90;0.50;;;6.60;99.90;;;;;;5000857;28;21245;-66
2023/12/23 06:26:25;;;;;;;1.00;0.40;;;6.40;99.90;;;;;;4993174;28;20184;-64
2023/12/23 06:28:50;;;;;;;1.30;0.50;;;6.40;99.90;;;;;;4992938;28;21017;-64
2023/12/23 06:31:16;;;;;;;1.10;0.50;;;6.40;99.90;;;;;;4997218;28;20560;-66
2023/12/23 06:33:41;;;;;;;2.23;0.57;;;6.30;99.90;;;;;;5000885;28;20187;-66
2023/12/23 06:36:08;;;;;;;1.63;0.40;;;6.30;99.90;;;;;;5010557;28;20199;-66
2023/12/23 06:38:36;;;;;;;1.00;0.40;;;6.30;99.90;;;;;;5000704;28;20212;-66
2023/12/23 06:41:03;;;;;;;1.00;0.40;;;6.30;99.90;;;;;;4992820;28;20455;-66
2023/12/23 06:43:29;;;;;;;1.57;0.50;;;6.30;99.90;;;;;;4992763;28;20469;-66
2023/12/23 06:45:55;;;;;;;3.00;1.03;;;6.20;99.90;;;;;;5005193;28;20427;-66
2023/12/23 06:48:20;;;;;;;1.00;0.40;;;6.20;99.90;;;;;;4992783;28;20542;-66
2023/12/23 06:50:46;;;;;;;1.37;0.50;;;6.20;99.90;;;;;;5005174;28;20203;-66
2023/12/23 06:53:11;;;;;;;1.10;0.50;;;6.20;99.90;;;;;;4992557;28;20883;-64
2023/12/23 06:55:37;;;;;;;1.10;0.50;;;6.20;99.90;;;;;;4997027;28;20186;-64
2023/12/23 06:58:02;;;;;;;2.03;0.80;;;6.30;99.90;;;;;;5013320;28;20218;-66
2023/12/23 07:00:28;;;;;;;1.30;0.50;;;6.20;99.90;;;;;;5011536;28;20190;-66
2023/12/23 07:02:54;;;;;;;1.00;0.40;;;6.20;99.90;;;;;;5012344;28;20302;-64
2023/12/23 07:05:20;;;;;;;1.30;0.60;;;6.20;99.90;;;;;;5016701;28;20198;-64
2023/12/23 07:07:45;;;;;;;1.50;0.60;;;6.30;99.90;;;;;;5031807;28;20182;-66
2023/12/23 07:10:13;;;;;;;1.00;0.50;;;6.10;99.90;;;;;;5017907;28;20816;-66
2023/12/23 07:12:38;;;;;;;1.80;0.80;;;6.30;99.90;;;;;;5019683;28;20178;-64
2023/12/23 07:15:06;;;;;;;1.00;0.50;;;6.60;99.90;;;;;;5011517;28;20907;-64
2023/12/23 07:17:32;;;;;;;1.77;0.70;;;6.10;99.90;;;;;;5012116;28;20585;-66
2023/12/23 07:19:57;;;;;;;1.63;0.83;;;6.10;99.90;;;;;;5011877;28;20442;-66
2023/12/23 07:22:23;;;;;;;1.93;0.70;;;6.10;99.90;;;;;;5011415;28;20228;-65
2023/12/23 07:24:48;;;;;;;7.27;1.00;;;6.10;99.90;;;;;;5025380;28;20902;-64
2023/12/23 07:27:14;;;;;;;2.17;0.70;;;6.10;99.90;;;;;;5017243;28;20205;-64
2023/12/23 07:29:39;;;;;;;1.70;0.80;;;6.50;99.90;;;;;;5015086;28;20197;-64
2023/12/23 07:32:06;;;;;;;1.40;0.60;;;6.10;99.90;;;;;;5023597;28;20316;-64
2023/12/23 07:34:31;;;;;;;1.30;0.60;;;6.00;99.90;;;;;;5031460;28;20186;-64
2023/12/23 07:36:57;;;;;;;1.10;0.50;;;6.00;99.90;;;;;;5030837;28;20818;-66
2023/12/23 07:39:22;;;;;;;1.00;0.50;;;6.00;99.90;;;;;;5026019;28;20191;-66
2023/12/23 07:41:48;;;;;;;1.37;0.70;;;6.30;99.90;;;;;;5023309;28;20237;-66
2023/12/23 07:44:13;;;;;;;1.10;0.50;;;6.00;99.90;;;;;;5012873;28;20507;-66
2023/12/23 07:46:39;;;;;;;1.30;0.50;;;6.10;99.90;;;;;;5011028;28;20299;-66
2023/12/23 07:49:04;;;;;;;5.37;0.60;;;6.00;99.90;;;;;;5016005;28;20198;-66
2023/12/23 07:51:30;;;;;;;1.77;0.73;;;6.10;99.90;;;;;;5030523;28;20214;-66
2023/12/23 07:53:55;;;;;;;1.53;0.50;;;6.10;99.90;;;;;;5013280;28;20171;-66
2023/12/23 07:56:21;;;;;;;1.20;0.50;;;6.30;99.90;;;;;;5011020;28;20238;-66
2023/12/23 07:58:46;;;;;;;3.10;0.60;;;6.40;99.90;;;;;;5013838;28;20183;-66
2023/12/23 08:01:12;;;;;;;1.40;0.50;;;6.00;99.90;;;;;;5015335;28;20191;-66
2023/12/23 08:03:37;;;;;;;1.23;0.53;;;6.00;99.90;;;;;;5015810;28;20195;-66
2023/12/23 08:06:03;;;;;;;1.30;0.50;;;6.00;99.90;;;;;;5006136;28;20175;-66
2023/12/23 08:08:28;;;;;;;1.27;0.50;;;6.00;99.90;;;;;;5012933;28;20190;-65
2023/12/23 08:10:54;;;;;;;1.87;0.60;;;6.10;99.90;;;;;;5015570;28;20608;-66
2023/12/23 08:13:20;;;;;;;2.07;0.60;;;6.40;99.90;;;;;;5015697;28;20262;-64
2023/12/23 08:15:46;;;;;;;1.67;0.53;;;6.10;99.90;;;;;;5013212;28;20190;-64
2023/12/23 08:18:12;;;;;;;1.20;0.50;;;6.70;99.90;;;;;;5002415;28;20422;-64
2023/12/23 08:20:37;;;;;;;4.53;0.60;;;6.10;99.90;;;;;;5014866;28;20182;-64
2023/12/23 08:23:03;;;;;;;2.80;0.50;;;6.60;99.90;;;;;;5015589;28;20212;-66
2023/12/23 08:25:29;;;;;;;1.63;0.50;;;6.10;99.90;;;;;;5015144;28;20266;-66
2023/12/23 08:27:54;;;;;;;10.30;0.67;;;6.50;99.90;;;;;;5008149;28;20533;-64
2023/12/23 08:30:20;;;;;;;1.20;0.53;;;6.60;99.90;;;;;;5008050;28;20291;-64
2023/12/23 08:32:45;;;;;;;1.00;0.50;;;6.10;99.90;;;;;;5000140;28;20736;-64
2023/12/23 08:35:11;;;;;;;1.23;0.50;;;6.50;99.90;;;;;;5014964;28;20182;-64
2023/12/23 08:37:37;;;;;;;1.40;0.50;;;6.60;99.90;;;;;;5014869;28;20174;-64
2023/12/23 08:40:03;;;;;;;1.80;0.80;;;6.10;99.90;;;;;;5011314;28;20807;-64
2023/12/23 08:42:28;;;;;;;2.43;0.60;;;6.20;99.90;;;;;;5014880;28;20179;-66
2023/12/23 08:44:54;;;;;;;1.00;0.40;;;6.90;99.90;;;;;;5008294;28;20461;-66
2023/12/23 08:47:19;;;;;;;1.00;0.40;;;6.90;99.90;;;;;;5014882;28;20221;-66
2023/12/23 08:49:45;;;;;;;1.00;0.40;;;6.20;99.90;;;;;;5015069;28;20750;-66
2023/12/23 08:52:10;;;;;;;1.00;0.50;;;6.80;99.90;;;;;;5014099;28;20199;-66
2023/12/23 08:54:36;;;;;;;1.00;0.40;;;7.20;99.90;;;;;;5014923;28;20639;-66
2023/12/23 08:57:02;;;;;;;1.20;0.50;;;7.00;99.90;;;;;;5011098;28;20214;-66
2023/12/23 08:59:27;;;;;;;3.07;0.80;;;6.30;99.90;;;;;;5020728;28;20183;-66
2023/12/23 09:01:52;;;;;;;1.20;0.50;;;6.90;99.90;;;;;;5034267;28;20229;-64
2023/12/23 09:04:18;;;;;;;1.10;0.60;;;6.80;99.90;;;;;;5034596;28;20182;-64
2023/12/23 09:06:44;;;;;;;1.00;0.40;;;6.90;99.90;;;;;;5030581;28;20546;-66
2023/12/23 09:09:09;;;;;;;1.40;0.67;;;6.40;99.90;;;;;;5010557;28;20179;-66
2023/12/23 09:11:42;;;;;;;1.07;0.43;;;6.80;99.90;;;;;;5014141;28;20260;-64
2023/12/23 09:14:09;;;;;;;1.00;0.40;;;7.10;99.90;;;;;;5010653;28;20281;-64
2023/12/23 09:16:35;;;;;;;1.87;0.80;;;7.20;99.90;;;;;;5021298;28;20419;-66
2023/12/23 09:19:00;;;;;;;1.00;0.40;;;7.50;99.90;;;;;;5010225;28;20414;-66
2023/12/23 09:21:26;;;;;;;1.00;0.40;;;7.50;99.90;;;;;;5013418;28;20698;-64
2023/12/23 09:23:51;;;;;;;9.67;0.57;;;7.00;99.90;;;;;;5014394;28;20195;-65
2023/12/23 09:26:17;;;;;;;1.20;0.50;;;7.20;99.90;;;;;;5022009;28;20602;-66
2023/12/23 09:28:42;;;;;;;1.00;0.50;;;6.50;99.90;;;;;;5023205;28;20224;-66
2023/12/23 09:31:08;;;;;;;1.00;0.40;;;7.20;99.90;;;;;;5020383;28;20205;-64
2023/12/23 09:33:33;;;;;;;1.33;0.60;;;7.20;99.90;;;;;;5034016;28;20178;-64
2023/12/23 09:35:59;;;;;;;1.30;0.60;;;7.20;99.90;;;;;;5033028;28;20178;-64
2023/12/23 09:38:24;;;;;;;1.10;0.50;;;6.70;99.90;;;;;;5020562;28;20184;-64
2023/12/23 09:40:50;;;;;;;1.03;0.40;;;7.20;99.90;;;;;;5028333;28;20186;-64
2023/12/23 09:43:18;;;;;;;1.67;0.50;;;7.20;99.90;;;;;;5019451;28;20641;-64
2023/12/23 09:45:46;;;;;;;1.90;0.97;;;7.20;99.90;;;;;;5011223;28;20291;-65
2023/12/23 09:48:11;;;;;;;1.30;0.57;;;7.20;99.90;;;;;;5013633;28;20434;-66
2023/12/23 09:50:37;;;;;;;1.20;0.50;;;6.60;99.90;;;;;;5024555;28;20564;-66
2023/12/23 09:53:04;;;;;;;1.33;0.60;;;7.10;99.90;;;;;;5015699;28;20600;-66
2023/12/23 09:55:31;;;;;;;1.00;0.40;;;7.70;99.90;;;;;;5015955;28;20718;-66
2023/12/23 09:57:57;;;;;;;1.10;0.40;;;7.50;99.90;;;;;;5019119;28;20821;-66
2023/12/23 10:00:23;;;;;;;1.10;0.50;;;7.80;99.90;;;;;;5021664;28;20424;-67
2023/12/23 10:02:48;;;;;;;1.00;0.40;;;6.70;99.90;;;;;;5021469;28;20653;-66
2023/12/23 10:05:13;;;;;;;1.10;0.50;;;7.50;99.90;;;;;;5019306;28;20182;-66
2023/12/23 10:07:39;;;;;;;1.00;0.40;;;7.30;99.90;;;;;;5018682;28;20194;-64
2023/12/23 10:10:05;;;;;;;1.30;0.50;;;7.50;99.90;;;;;;5013935;28;20172;-64
2023/12/23 10:12:31;;;;;;;1.07;0.43;;;6.70;99.90;;;;;;5006464;28;20211;-66
2023/12/23 10:14:57;;;;;;;1.20;0.50;;;7.80;99.90;;;;;;5011812;28;20414;-66
2023/12/23 10:17:22;;;;;;;1.00;0.40;;;7.70;99.90;;;;;;5007068;28;20179;-64
2023/12/23 10:19:48;;;;;;;1.00;0.40;;;6.70;99.90;;;;;;5013217;28;20191;-64
2023/12/23 10:22:16;;;;;;;1.00;0.40;;;7.80;99.90;;;;;;5021281;28;20307;-66
2023/12/23 10:24:42;;;;;;;1.10;0.40;;;8.10;99.90;;;;;;5010748;28;20378;-66
2023/12/23 10:27:07;;;;;;;1.00;0.40;;;7.40;99.90;;;;;;5010596;28;20516;-67
2023/12/23 10:29:37;;;;;;;1.00;0.40;;;8.00;99.90;;;;;;5012270;28;20521;-67
2023/12/23 10:32:04;;;;;;;1.03;0.50;;;7.50;99.90;;;;;;5023643;28;20198;-62
2023/12/23 10:34:42;;;;;;;1.00;0.40;;;6.80;99.90;;;;;;5013842;28;20413;-62
2023/12/23 10:37:09;;;;;;;1.00;0.50;;;6.80;99.90;;;;;;5017649;28;20413;-64
2023/12/23 10:39:37;;;;;;;1.10;0.50;;;7.90;99.90;;;;;;5020667;28;20485;-65
2023/12/23 10:42:09;;;;;;;1.10;0.50;;;6.70;99.90;;;;;;5009914;28;20496;-68
2023/12/23 10:44:35;;;;;;;1.00;0.50;;;7.50;99.90;;;;;;5007975;28;20485;-68
2023/12/23 10:47:02;;;;;;;1.10;0.60;;;7.50;99.90;;;;;;5004535;28;20466;-68
2023/12/23 10:49:28;;;;;;;1.00;0.40;;;6.70;99.90;;;;;;5003567;28;20800;-68
2023/12/23 10:51:55;;;;;;;1.00;0.40;;;7.70;99.90;;;;;;5002605;28;20466;-68
2023/12/23 10:54:24;;;;;;;1.17;0.50;;;7.60;99.90;;;;;;5010328;28;20417;-65
2023/12/23 10:56:52;;;;;;;1.10;0.50;;;8.10;99.90;;;;;;5017991;28;20458;-67
2023/12/23 10:59:18;;;;;;;2.30;0.50;;;7.90;99.90;;;;;;5017275;28;20853;-67
2023/12/23 11:01:46;;;;;;;1.10;0.43;;;6.60;99.90;;;;;;5016305;28;20436;-67
2023/12/23 11:04:12;;;;;;;1.10;0.50;;;7.40;99.90;;;;;;5022733;28;20777;-64
2023/12/23 11:06:42;;;;;;;1.00;0.47;;;7.20;99.90;;;;;;5024181;28;20422;-67
2023/12/23 11:09:09;;;;;;;1.20;0.50;;;7.70;99.90;;;;;;5015789;28;20180;-68
2023/12/23 11:11:36;;;;;;;1.10;0.40;;;6.50;99.90;;;;;;5018781;28;20819;-65
2023/12/23 11:14:04;;;;;;;1.00;0.40;;;7.10;99.90;;;;;;5021429;28;20465;-62
2023/12/23 11:16:30;;;;;;;2.43;0.57;;;7.60;99.90;;;;;;5008005;28;20470;-66
2023/12/23 11:18:56;;;;;;;1.00;0.40;;;7.10;99.90;;;;;;5021093;28;20425;-66
2023/12/23 11:21:21;;;;;;;1.10;0.40;;;7.40;99.90;;;;;;5014041;28;20187;-67
2023/12/23 11:23:47;;;;;;;1.00;0.50;;;7.80;99.90;;;;;;5011053;28;20457;-68
2023/12/23 11:26:41;;;;;;;1.00;0.40;;;7.70;99.90;;;;;;5015945;28;20638;-68
2023/12/23 11:29:08;;;;;;;1.33;0.40;;;6.60;99.90;;;;;;5003362;28;20174;-67
2023/12/23 11:31:34;;;;;;;1.03;0.47;;;8.10;99.90;;;;;;5011257;28;20513;-67
2023/12/23 11:34:00;;;;;;;1.00;0.40;;;6.80;99.90;;;;;;5016273;28;20429;-68
2023/12/23 11:36:26;;;;;;;1.00;0.40;;;7.70;99.90;;;;;;5018310;28;20178;-68
2023/12/23 11:38:52;;;;;;;1.27;0.60;;;7.60;99.90;;;;;;5018583;28;20423;-68
2023/12/23 11:41:19;;;;;;;1.00;0.40;;;7.50;99.90;;;;;;5018844;28;20222;-68
2023/12/23 11:43:46;;;;;;;1.10;0.40;;;8.00;99.90;;;;;;5022208;28;20409;-68
2023/12/23 11:46:13;;;;;;;1.50;0.50;;;8.10;99.90;;;;;;5010411;28;20811;-68
2023/12/23 11:48:38;;;;;;;1.17;0.50;;;8.30;99.90;;;;;;5019949;28;20527;-68
2023/12/23 11:51:06;;;;;;;1.10;0.50;;;6.90;99.90;;;;;;5010169;28;20465;-65
2023/12/23 11:53:33;;;;;;;1.23;0.40;;;8.20;99.90;;;;;;5017836;28;20171;-64
2023/12/23 11:55:59;;;;;;;1.10;0.50;;;8.20;99.90;;;;;;5010031;28;20422;-64
2023/12/23 11:58:24;;;;;;;1.57;0.60;;;8.10;99.90;;;;;;5013012;28;20448;-67
2023/12/23 12:00:51;;;;;;;1.00;0.40;;;6.90;99.90;;;;;;5016209;28;20414;-67
2023/12/23 12:03:17;;;;;;;1.20;0.50;;;8.00;99.90;;;;;;5019059;28;20179;-67
2023/12/23 12:05:42;;;;;;;1.00;0.40;;;7.90;99.90;;;;;;5013598;28;20440;-67
2023/12/23 12:08:08;;;;;;;1.30;0.50;;;7.10;99.90;;;;;;5018033;28;20191;-68
2023/12/23 12:10:33;;;;;;;1.00;0.40;;;7.10;99.90;;;;;;5015159;28;20231;-68
2023/12/23 12:12:59;;;;;;;1.20;0.50;;;7.50;99.90;;;;;;5016011;28;20553;-68
2023/12/23 12:15:25;;;;;;;1.60;0.67;;;8.00;99.90;;;;;;5009190;28;20175;-67
2023/12/23 12:17:52;;;;;;;1.00;0.40;;;8.20;99.90;;;;;;5013382;28;20537;-68
2023/12/23 12:20:18;;;;;;;1.93;0.50;;;8.30;99.90;;;;;;5019338;28;20192;-68
2023/12/23 12:22:45;;;;;;;1.10;0.40;;;7.80;99.90;;;;;;5018000;28;20529;-66
2023/12/23 12:25:10;;;;;;;1.53;0.57;;;7.60;99.90;;;;;;5015166;28;20182;-65
2023/12/23 12:27:37;;;;;;;2.13;0.53;;;7.20;99.90;;;;;;5013035;28;20414;-68
2023/12/23 12:30:02;;;;;;;1.40;0.60;;;7.40;99.90;;;;;;5012871;28;20279;-68
2023/12/23 12:32:28;;;;;;;1.47;0.67;;;7.30;99.90;;;;;;5023024;28;20524;-65
2023/12/23 12:35:03;;;;;;;1.10;0.50;;;9.30;99.90;;;;;;4997833;28;20199;-64
2023/12/23 12:37:28;;;;;;;2.30;0.57;;;7.30;99.90;;;;;;5014594;28;20189;-67
2023/12/23 12:39:54;;;;;;;1.70;0.50;;;9.60;99.90;;;;;;5024667;28;20410;-67
2023/12/23 12:42:21;;;;;;;2.20;0.60;;;8.20;99.90;;;;;;5014719;28;20223;-67
2023/12/23 12:44:47;;;;;;;1.00;0.40;;;9.30;99.90;;;;;;5014704;28;20921;-67
2023/12/23 12:47:13;;;;;;;1.00;0.40;;;8.60;99.90;;;;;;5026831;28;20409;-65
2023/12/23 12:49:46;;;;;;;1.83;0.50;;;7.30;99.90;;;;;;5024737;28;20420;-64
2023/12/23 12:52:12;;;;;;;1.00;0.40;;;;;;;;;;5012214;28;20210;-67